Time;durP1;ratioP1;P1;durP2;ratioP2;P2;SDS_P1;SDS_P2;PMS_P1;PMS_P2;Temp;Humidity;BMP_temperature;BMP_pressure;BME280_temperature;BME280_humidity;BME280_pressure;Samples;Min_cycle;Max_cycle;Signal;HPM_P1;HPM_P2
2021/08/08 00:00:26;;;;;;;2.85;1.73;;;;;;;14.65;100.00;99769.81;5053525;28;20505;-66
2021/08/08 00:03:10;;;;;;;1.42;1.17;;;;;;;14.64;100.00;99773.50;5052272;28;20420;-66
2021/08/08 00:05:54;;;;;;;3.42;1.15;;;;;;;14.65;100.00;99780.53;5053495;28;20493;-65
2021/08/08 00:08:38;;;;;;;3.42;1.58;;;;;;;14.61;100.00;99773.88;5053011;28;20131;-66
2021/08/08 00:11:22;;;;;;;3.17;1.60;;;;;;;14.64;100.00;99784.25;5053102;28;20468;-66
2021/08/08 00:14:06;;;;;;;1.85;1.27;;;;;;;14.64;100.00;99782.41;5038153;28;20074;-66
2021/08/08 00:16:50;;;;;;;2.78;1.50;;;;;;;14.62;100.00;99794.31;5053007;28;20044;-64
2021/08/08 00:19:34;;;;;;;2.58;1.60;;;;;;;14.60;100.00;99782.94;5052144;28;20051;-65
2021/08/08 00:22:18;;;;;;;2.80;1.42;;;;;;;14.60;100.00;99778.41;5052916;28;20161;-65
2021/08/08 00:25:05;;;;;;;3.72;1.60;;;;;;;14.55;100.00;99788.00;5053059;28;20416;-66
2021/08/08 00:27:49;;;;;;;3.97;1.35;;;;;;;14.55;100.00;99796.91;5051675;28;20056;-64
2021/08/08 00:30:33;;;;;;;3.25;1.45;;;;;;;14.51;100.00;99792.06;5053287;28;20413;-66
2021/08/08 00:33:17;;;;;;;5.60;1.52;;;;;;;14.48;100.00;99795.94;5052917;28;20047;-66
2021/08/08 00:36:01;;;;;;;3.50;1.80;;;;;;;14.48;100.00;99784.41;5052750;28;20048;-65
2021/08/08 00:38:46;;;;;;;3.55;1.48;;;;;;;14.44;100.00;99783.91;5052717;28;20075;-66
2021/08/08 00:41:30;;;;;;;5.95;1.60;;;;;;;14.46;100.00;99786.41;5052867;28;20048;-64
2021/08/08 00:44:15;;;;;;;4.82;2.10;;;;;;;14.41;100.00;99791.50;5051645;28;20525;-66
2021/08/08 00:46:58;;;;;;;4.70;1.75;;;;;;;14.41;100.00;99780.75;5051489;28;20122;-66
2021/08/08 00:49:42;;;;;;;2.75;1.60;;;;;;;14.38;100.00;99784.63;5052520;28;20052;-66
2021/08/08 00:52:27;;;;;;;3.30;1.80;;;;;;;14.38;100.00;99794.53;5052716;28;20048;-65
2021/08/08 00:55:11;;;;;;;3.45;1.67;;;;;;;14.34;100.00;99794.06;5051681;28;20068;-66
2021/08/08 00:57:56;;;;;;;2.88;1.60;;;;;;;14.36;100.00;99799.22;5051596;28;20048;-64
2021/08/08 01:00:41;;;;;;;1.65;1.45;;;;;;;14.34;100.00;99801.25;5051632;28;20043;-66
2021/08/08 01:03:26;;;;;;;5.22;1.70;;;;;;;14.36;100.00;99797.38;5051539;28;20128;-63
2021/08/08 01:06:35;;;;;;;3.08;1.60;;;;;;;14.36;100.00;99807.25;5037433;28;20612;-66
2021/08/08 01:09:21;;;;;;;4.13;1.90;;;;;;;14.39;100.00;99806.94;5101384;22;20483;-68
2021/08/08 01:12:06;;;;;;;3.38;1.85;;;;;;;14.40;100.00;99809.41;5063319;28;20078;-67
2021/08/08 01:14:51;;;;;;;2.88;1.83;;;;;;;14.45;100.00;99816.91;5091720;28;20055;-68
2021/08/08 01:17:38;;;;;;;3.30;1.90;;;;;;;14.48;100.00;99805.84;5077750;28;20554;-67
2021/08/08 01:20:24;;;;;;;5.90;1.90;;;;;;;14.50;100.00;99810.00;5091464;28;20059;-68
2021/08/08 01:23:10;;;;;;;4.05;1.80;;;;;;;14.52;100.00;99815.19;5091612;28;20051;-67
2021/08/08 01:25:54;;;;;;;3.65;1.88;;;;;;;14.52;100.00;99817.88;5091537;28;20077;-67
2021/08/08 01:28:38;;;;;;;2.92;2.10;;;;;;;14.54;100.00;99816.69;5094899;28;20089;-68
2021/08/08 01:31:23;;;;;;;3.47;2.28;;;;;;;14.57;100.00;99821.69;5096822;28;20051;-68
2021/08/08 01:34:07;;;;;;;4.57;2.03;;;;;;;14.55;100.00;99821.03;5081020;28;20063;-67
2021/08/08 01:36:51;;;;;;;1.83;1.73;;;;;;;14.56;100.00;99814.66;5081265;28;20105;-67
2021/08/08 01:39:35;;;;;;;3.60;2.05;;;;;;;14.55;100.00;99828.25;5095548;28;20120;-68
2021/08/08 01:42:21;;;;;;;3.28;1.85;;;;;;;14.58;100.00;99825.22;5095458;28;20113;-68
2021/08/08 01:45:07;;;;;;;1.92;1.70;;;;;;;14.58;100.00;99820.66;5096398;28;20055;-67
2021/08/08 01:47:58;;;;;;;1.73;1.63;;;;;;;14.61;100.00;99822.16;5081224;28;20051;-67
2021/08/08 01:50:42;;;;;;;4.60;1.73;;;;;;;14.57;100.00;99824.38;5080736;28;20357;-68
2021/08/08 01:53:26;;;;;;;5.05;1.73;;;;;;;14.57;100.00;99815.50;5095215;28;20059;-68
2021/08/08 01:56:14;;;;;;;4.45;1.85;;;;;;;14.57;100.00;99815.50;5080729;28;20096;-68
2021/08/08 01:58:57;;;;;;;6.47;2.28;;;;;;;14.59;100.00;99822.34;5080992;28;20139;-68
2021/08/08 02:01:43;;;;;;;3.75;2.00;;;;;;;14.63;100.00;99826.34;5094871;28;20097;-68
2021/08/08 02:04:27;;;;;;;1.80;1.67;;;;;;;14.65;100.00;99818.94;5080993;28;20055;-68
2021/08/08 02:07:13;;;;;;;4.32;1.92;;;;;;;14.67;100.00;99816.09;5095994;28;20499;-68
2021/08/08 02:09:57;;;;;;;4.03;2.13;;;;;;;14.67;100.00;99816.91;5081440;28;20047;-68
2021/08/08 02:12:41;;;;;;;6.55;2.17;;;;;;;14.69;100.00;99816.75;5094842;28;20113;-66
2021/08/08 02:15:25;;;;;;;3.50;1.83;;;;;;;14.67;100.00;99808.84;5080801;28;20043;-67
2021/08/08 02:18:09;;;;;;;2.63;1.80;;;;;;;14.67;100.00;99816.91;5080507;28;20043;-68
2021/08/08 02:20:53;;;;;;;3.33;2.00;;;;;;;14.68;100.00;99818.56;5094431;28;20051;-68
2021/08/08 02:23:36;;;;;;;2.22;1.95;;;;;;;14.66;100.00;99822.44;5094787;28;20062;-68
2021/08/08 02:26:20;;;;;;;4.60;2.15;;;;;;;14.64;100.00;99811.91;5095394;28;20134;-68
2021/08/08 02:29:04;;;;;;;3.65;2.10;;;;;;;14.69;100.00;99824.78;5094258;28;20127;-68
2021/08/08 02:31:48;;;;;;;5.40;2.08;;;;;;;14.69;100.00;99835.53;5095822;28;20051;-68
2021/08/08 02:34:32;;;;;;;2.58;2.20;;;;;;;14.71;100.00;99822.75;5094520;28;20130;-68
2021/08/08 02:37:16;;;;;;;2.78;2.10;;;;;;;14.71;100.00;99828.94;5094575;28;20051;-67
2021/08/08 02:40:00;;;;;;;5.28;2.55;;;;;;;14.72;100.00;99830.63;5095113;28;20424;-68
2021/08/08 02:42:44;;;;;;;4.28;2.35;;;;;;;14.75;100.00;99829.41;5080054;28;20067;-68
2021/08/08 02:45:28;;;;;;;3.22;1.92;;;;;;;14.78;100.00;99839.81;5094218;28;20050;-68
2021/08/08 02:48:12;;;;;;;2.88;2.00;;;;;;;14.78;100.00;99845.16;5095300;28;20050;-67
2021/08/08 02:50:56;;;;;;;2.85;2.03;;;;;;;14.80;100.00;99848.50;5093887;28;20066;-67
2021/08/08 02:53:40;;;;;;;6.75;2.30;;;;;;;14.80;100.00;99857.38;5079893;28;20055;-68
2021/08/08 02:56:24;;;;;;;6.13;2.45;;;;;;;14.80;100.00;99851.19;5094046;28;20412;-68
2021/08/08 02:59:08;;;;;;;3.65;2.28;;;;;;;14.80;100.00;99860.06;5093924;28;20055;-68
2021/08/08 03:01:52;;;;;;;3.97;2.00;;;;;;;14.82;100.00;99865.25;5094010;28;20536;-68
2021/08/08 03:04:36;;;;;;;2.83;2.08;;;;;;;14.84;100.00;99869.44;5079659;28;20066;-68
2021/08/08 03:07:20;;;;;;;4.97;2.33;;;;;;;14.84;100.00;99871.25;5093837;28;20074;-67
2021/08/08 03:10:05;;;;;;;4.90;2.45;;;;;;;14.83;100.00;99865.09;5093556;28;20051;-68
2021/08/08 03:12:49;;;;;;;4.82;2.47;;;;;;;14.83;100.00;99874.97;5093764;28;20173;-68
2021/08/08 03:15:34;;;;;;;3.28;2.40;;;;;;;14.76;100.00;99868.63;5093917;28;20492;-68
2021/08/08 03:18:18;;;;;;;5.22;2.40;;;;;;;14.77;100.00;99883.72;5079443;28;20093;-68
2021/08/08 03:21:02;;;;;;;14.73;2.53;;;;;;;14.74;100.00;99889.47;5094362;28;20043;-68
2021/08/08 03:23:46;;;;;;;3.72;2.50;;;;;;;14.75;100.00;99893.81;5093555;28;20043;-68
2021/08/08 03:26:31;;;;;;;2.40;2.20;;;;;;;14.79;100.00;99893.28;5094333;28;20063;-68
2021/08/08 03:29:15;;;;;;;3.80;2.00;;;;;;;14.79;100.00;99889.78;5093278;28;20149;-68
2021/08/08 03:31:58;;;;;;;3.97;2.28;;;;;;;14.83;100.00;99901.81;5093250;28;20070;-68
2021/08/08 03:34:42;;;;;;;4.50;2.10;;;;;;;14.82;100.00;99902.81;5079077;28;20090;-68
2021/08/08 03:37:27;;;;;;;3.58;2.05;;;;;;;14.78;100.00;99910.38;5093523;28;20093;-68
2021/08/08 03:40:11;;;;;;;4.97;2.22;;;;;;;14.76;100.00;99915.09;5093991;28;20051;-68
2021/08/08 03:42:55;;;;;;;6.15;2.40;;;;;;;14.76;100.00;99915.09;5093987;28;20066;-68
2021/08/08 03:45:39;;;;;;;2.70;2.13;;;;;;;14.74;100.00;99919.81;5094160;28;20054;-66
2021/08/08 03:48:23;;;;;;;4.75;2.30;;;;;;;14.79;100.00;99916.59;5093320;28;20082;-67
2021/08/08 03:51:07;;;;;;;5.50;2.10;;;;;;;14.81;100.00;99919.94;5077899;28;20050;-67
2021/08/08 03:53:51;;;;;;;4.80;2.10;;;;;;;14.84;100.00;99919.56;5092887;28;20050;-67
2021/08/08 03:56:35;;;;;;;3.85;2.08;;;;;;;14.88;100.00;99920.91;5093668;28;20097;-67
2021/08/08 03:59:19;;;;;;;6.00;2.28;;;;;;;14.94;100.00;99917.47;5078788;28;20047;-68
2021/08/08 04:02:03;;;;;;;4.93;2.25;;;;;;;14.95;100.00;99924.50;5092828;28;20504;-68
2021/08/08 04:04:47;;;;;;;7.60;2.72;;;;;;;14.97;100.00;99928.69;5078282;28;20101;-68
2021/08/08 04:07:31;;;;;;;6.18;2.35;;;;;;;14.98;100.00;99937.59;5093757;28;20115;-67
2021/08/08 04:10:16;;;;;;;6.07;2.20;;;;;;;15.01;100.00;99932.66;5092283;28;20147;-66
2021/08/08 04:12:59;;;;;;;4.88;2.22;;;;;;;15.02;100.00;99933.53;5093619;28;20050;-68
2021/08/08 04:15:43;;;;;;;3.30;2.70;;;;;;;15.04;100.00;99936.84;5093639;28;20169;-68
2021/08/08 04:18:27;;;;;;;3.45;2.20;;;;;;;15.07;100.00;99942.69;5078284;28;20062;-68
2021/08/08 04:21:11;;;;;;;5.32;2.05;;;;;;;15.12;100.00;99934.09;5092302;28;20092;-68
2021/08/08 04:23:55;;;;;;;2.65;1.85;;;;;;;15.13;100.00;99930.41;5092474;28;20108;-67
2021/08/08 04:26:39;;;;;;;3.17;2.05;;;;;;;15.16;100.00;99940.78;5077984;28;20094;-68
2021/08/08 04:29:23;;;;;;;3.88;2.10;;;;;;;15.21;100.00;99941.09;5092125;28;20086;-68
2021/08/08 04:32:07;;;;;;;3.67;2.28;;;;;;;15.20;100.00;99944.78;5093314;28;20050;-67
2021/08/08 04:34:52;;;;;;;7.22;2.20;;;;;;;15.23;100.00;99949.78;5091955;28;20043;-68
2021/08/08 04:37:35;;;;;;;2.58;1.80;;;;;;;15.29;100.00;99952.56;5093058;28;20184;-68
2021/08/08 04:40:20;;;;;;;3.30;1.80;;;;;;;15.35;100.00;99954.56;5092064;28;20065;-68
2021/08/08 04:43:07;;;;;;;4.82;2.00;;;;;;;15.38;100.00;99953.34;5078079;28;20518;-68
2021/08/08 04:45:51;;;;;;;2.00;1.80;;;;;;;15.40;100.00;99964.78;5077798;28;20545;-68
2021/08/08 04:48:35;;;;;;;7.13;1.98;;;;;;;15.42;100.00;99958.19;5077739;28;20054;-68
2021/08/08 04:51:19;;;;;;;4.53;1.80;;;;;;;15.44;100.00;99966.06;5091853;28;20538;-68
2021/08/08 04:54:03;;;;;;;5.40;1.98;;;;;;;15.46;100.00;99974.78;5091641;28;20083;-66
2021/08/08 04:56:47;;;;;;;2.65;1.63;;;;;;;15.47;100.00;99977.28;5077530;28;20058;-67
2021/08/08 04:59:31;;;;;;;6.15;1.92;;;;;;;15.50;100.00;99979.59;5091436;28;20062;-68
2021/08/08 05:02:19;;;;;;;2.83;1.70;;;;;;;15.52;100.00;99971.38;5091582;28;20192;-68
2021/08/08 05:05:04;;;;;;;5.30;2.30;;;;;;;15.51;100.00;99975.06;5077456;28;20100;-68
2021/08/08 05:07:48;;;;;;;4.03;2.00;;;;;;;15.52;100.00;99984.81;5091765;28;20039;-67
2021/08/08 05:10:33;;;;;;;2.20;1.58;;;;;;;15.52;100.00;99985.63;5091321;28;20109;-68
2021/08/08 05:13:17;;;;;;;3.97;1.52;;;;;;;15.51;100.00;99981.28;5091684;28;20051;-68
2021/08/08 05:16:01;;;;;;;6.70;2.10;;;;;;;15.57;100.00;99982.38;5092765;28;20527;-68
2021/08/08 05:18:44;;;;;;;5.95;1.52;;;;;;;15.56;100.00;99991.47;5091468;28;20097;-68
2021/08/08 05:21:28;;;;;;;4.82;1.65;;;;;;;15.56;100.00;99980.72;5092669;28;20043;-68
2021/08/08 05:24:12;;;;;;;6.70;1.90;;;;;;;15.58;100.00;99991.09;5092544;28;20093;-68
2021/08/08 05:26:56;;;;;;;1.40;1.30;;;;;;;15.65;100.00;99994.72;5077270;28;20088;-68
2021/08/08 05:29:40;;;;;;;9.00;2.30;;;;;;;15.69;100.00;99998.75;5077047;28;20135;-67
2021/08/08 05:32:24;;;;;;;5.95;2.00;;;;;;;15.77;100.00;99997.81;5077003;28;20051;-67
2021/08/08 05:35:09;;;;;;;3.72;1.90;;;;;;;15.85;100.00;100003.94;5092469;28;20595;-68
2021/08/08 05:37:52;;;;;;;2.72;1.63;;;;;;;15.92;100.00;100002.19;5091183;28;20050;-68
2021/08/08 05:40:36;;;;;;;2.38;1.70;;;;;;;16.02;100.00;100005.44;5091131;28;20392;-67
2021/08/08 05:43:22;;;;;;;2.97;1.60;;;;;;;16.10;100.00;100016.13;5091358;28;20082;-68
2021/08/08 05:46:05;;;;;;;2.85;1.60;;;;;;;16.18;100.00;100007.94;5091259;28;20386;-68
2021/08/08 05:48:49;;;;;;;3.95;1.90;;;;;;;16.29;100.00;100017.41;5091328;28;20088;-68
2021/08/08 05:51:35;;;;;;;1.80;1.60;;;;;;;16.33;100.00;100024.91;5091303;28;20050;-68
2021/08/08 05:54:20;;;;;;;2.25;1.42;;;;;;;16.36;100.00;100027.25;5091320;28;20506;-68
2021/08/08 05:57:04;;;;;;;3.83;1.70;;;;;;;16.46;100.00;100033.19;5091198;28;20229;-68
2021/08/08 05:59:48;;;;;;;6.75;2.08;;;;;;;16.44;100.00;100037.91;5091427;28;20043;-68
2021/08/08 06:02:32;;;;;;;3.80;1.75;;;;;;;16.47;100.00;100037.53;5091854;28;20081;-68
2021/08/08 06:05:16;;;;;;;2.40;1.73;;;;;;;16.49;100.00;100032.78;5090783;28;20150;-68
2021/08/08 06:08:00;;;;;;;6.53;1.95;;;;;;;16.49;100.00;100035.50;5091884;28;20082;-68
2021/08/08 06:10:44;;;;;;;2.78;1.77;;;;;;;16.47;100.00;100052.88;5090959;28;20413;-68
2021/08/08 06:13:28;;;;;;;4.95;1.45;;;;;;;16.45;100.00;100050.34;5092526;28;20447;-68
2021/08/08 06:16:12;;;;;;;1.50;1.40;;;;;;;16.45;100.00;100057.56;5095691;28;20457;-67
2021/08/08 06:18:56;;;;;;;2.22;1.50;;;;;;;16.40;100.00;100055.44;5094441;28;20047;-68
2021/08/08 06:21:40;;;;;;;1.95;1.40;;;;;;;16.42;100.00;100061.50;5094878;28;20043;-68
2021/08/08 06:24:23;;;;;;;6.47;1.90;;;;;;;16.50;100.00;100049.78;5095561;28;20084;-68
2021/08/08 06:27:08;;;;;;;5.07;1.85;;;;;;;16.58;100.00;100061.28;5094498;28;20419;-69
2021/08/08 06:29:52;;;;;;;3.03;1.50;;;;;;;16.78;100.00;100056.16;5094391;28;20413;-69
2021/08/08 06:32:36;;;;;;;2.70;1.83;;;;;;;16.97;100.00;100055.56;5080473;28;20514;-67
2021/08/08 06:35:20;;;;;;;5.20;1.95;;;;;;;17.14;100.00;100052.44;5094375;28;20101;-68
2021/08/08 06:38:04;;;;;;;;;;;;;;;17.22;100.00;100056.84;5095846;28;20055;-68
2021/08/08 06:40:48;;;;;;;2.53;1.40;;;;;;;17.30;100.00;100052.16;5094253;28;19919;-67
2021/08/08 06:43:32;;;;;;;5.22;1.80;;;;;;;17.25;100.00;100060.00;5094346;28;20519;-68
2021/08/08 06:46:16;;;;;;;3.00;1.50;;;;;;;17.22;100.00;100062.25;5094216;28;20066;-68
2021/08/08 06:49:00;;;;;;;3.63;1.52;;;;;;;17.16;100.00;100061.16;5094135;28;20571;-68
2021/08/08 06:51:44;;;;;;;3.47;2.00;;;;;;;17.16;100.00;100066.53;5094049;28;20050;-68
2021/08/08 06:54:28;;;;;;;3.25;1.55;;;;;;;17.22;100.00;100071.19;5094025;28;20511;-68
2021/08/08 06:57:21;;;;;;;4.68;1.70;;;;;;;17.28;100.00;100070.41;5095061;28;20047;-68
2021/08/08 07:00:06;;;;;;;2.92;1.52;;;;;;;17.36;100.00;100080.25;5093846;28;20220;-68
2021/08/08 07:02:51;;;;;;;4.15;1.80;;;;;;;17.58;100.00;100077.34;5094049;28;20107;-68
2021/08/08 07:05:35;;;;;;;3.45;1.92;;;;;;;17.65;100.00;100083.66;5094818;28;20508;-68
2021/08/08 07:08:18;;;;;;;4.50;1.90;;;;;;;17.71;100.00;100093.66;5093719;28;20047;-69
2021/08/08 07:11:02;;;;;;;6.25;1.85;;;;;;;17.80;100.00;100097.06;5100899;22;20070;-68
2021/08/08 07:13:46;;;;;;;5.28;2.00;;;;;;;17.83;100.00;100107.44;5093582;28;20060;-68
2021/08/08 07:16:30;;;;;;;12.18;2.30;;;;;;;17.88;98.29;100116.63;5093839;28;20035;-68
2021/08/08 07:19:14;;;;;;;5.82;2.05;;;;;;;17.96;98.01;100116.50;5093361;28;20051;-68
2021/08/08 07:21:58;;;;;;;7.85;2.33;;;;;;;17.96;97.78;100115.66;5060694;28;20051;-69
2021/08/08 07:24:42;;;;;;;7.50;2.25;;;;;;;18.04;98.02;100113.66;5073070;28;20450;-68
2021/08/08 07:27:29;;;;;;;5.47;2.13;;;;;;;18.07;95.87;100109.72;5058881;28;20051;-69
2021/08/08 07:30:13;;;;;;;7.88;1.83;;;;;;;18.12;96.09;100118.88;5072784;28;20471;-68
2021/08/08 07:32:57;;;;;;;6.82;1.90;;;;;;;18.11;94.23;100117.22;5074086;28;20078;-68
2021/08/08 07:35:41;;;;;;;6.70;2.03;;;;;;;18.15;96.05;100113.13;5072817;28;20043;-69
2021/08/08 07:38:24;;;;;;;4.13;2.00;;;;;;;18.20;97.41;100109.84;5074253;28;20102;-67
2021/08/08 07:41:11;;;;;;;7.45;1.90;;;;;;;18.25;93.11;100101.97;5058650;28;20059;-69
2021/08/08 07:43:55;;;;;;;4.60;2.30;;;;;;;18.41;93.00;100107.91;5072793;28;20520;-68
2021/08/08 07:46:39;;;;;;;7.35;2.40;;;;;;;18.33;89.88;100118.88;5058270;28;20547;-68
2021/08/08 07:49:23;;;;;;;3.38;2.17;;;;;;;18.28;89.57;100118.59;5072513;28;20135;-68
2021/08/08 07:52:07;;;;;;;4.43;1.88;;;;;;;18.31;92.52;100118.22;5072360;28;20051;-68
2021/08/08 07:54:50;;;;;;;;;;;;;;;18.18;91.83;100123.50;5072836;28;20413;-69
2021/08/08 07:57:35;;;;;;;3.88;2.15;;;;;;;18.24;94.16;100125.41;5072756;28;19919;-69
2021/08/08 08:00:19;;;;;;;8.23;2.50;;;;;;;18.43;91.99;100127.44;5072389;28;20175;-68
2021/08/08 08:03:03;;;;;;;3.65;2.20;;;;;;;18.46;93.38;100132.47;5072191;28;20101;-68
2021/08/08 08:05:46;;;;;;;7.00;2.10;;;;;;;18.78;92.39;100137.22;5072049;28;20047;-69
2021/08/08 08:08:30;;;;;;;9.88;2.70;;;;;;;18.74;90.13;100149.44;5072288;28;20059;-67
2021/08/08 08:11:17;;;;;;;9.80;2.05;;;;;;;18.91;90.67;100134.59;5071920;28;20083;-68
2021/08/08 08:14:00;;;;;;;6.07;2.30;;;;;;;18.79;88.23;100134.31;5072165;28;20082;-68
2021/08/08 08:16:45;;;;;;;5.70;2.17;;;;;;;18.63;90.04;100134.66;5072259;28;20125;-69
2021/08/08 08:19:29;;;;;;;6.70;2.00;;;;;;;18.46;89.89;100138.69;5071806;28;20051;-69
2021/08/08 08:22:16;;;;;;;7.90;2.97;;;;;;;18.36;91.56;100137.38;5072161;28;20509;-69
2021/08/08 08:25:00;;;;;;;6.07;2.10;;;;;;;18.36;93.17;100132.00;5072062;28;20079;-69
2021/08/08 08:27:44;;;;;;;5.60;1.88;;;;;;;18.37;92.29;100140.91;5058133;28;20089;-69
2021/08/08 08:30:28;;;;;;;3.33;1.98;;;;;;;18.38;90.94;100140.72;5072780;28;20078;-69
2021/08/08 08:33:12;;;;;;;6.38;2.33;;;;;;;18.52;90.27;100148.72;5072985;28;20070;-69
2021/08/08 08:35:56;;;;;;;8.73;2.40;;;;;;;18.57;89.91;100151.63;5071358;28;20051;-68
2021/08/08 08:38:40;;;;;;;5.30;2.10;;;;;;;18.63;86.37;100160.81;5057787;28;20075;-69
2021/08/08 08:41:30;;;;;;;4.07;2.50;;;;;;;18.68;87.97;100147.56;5071496;28;20131;-69
2021/08/08 08:44:15;;;;;;;4.85;2.60;;;;;;;19.04;87.83;100146.28;5071792;28;20463;-69
2021/08/08 08:46:59;;;;;;;5.13;2.20;;;;;;;18.99;85.69;100161.44;5072571;28;20063;-69
2021/08/08 08:49:46;;;;;;;5.72;2.47;;;;;;;19.36;84.22;100153.72;5071692;28;20565;-69
2021/08/08 08:52:30;;;;;;;3.83;2.05;;;;;;;19.59;82.20;100153.38;5057644;28;20044;-68
2021/08/08 08:55:14;;;;;;;7.57;2.88;;;;;;;19.85;79.67;100142.59;5057781;28;20592;-69
2021/08/08 08:57:58;;;;;;;7.20;2.42;;;;;;;20.07;79.24;100138.69;5071632;28;20500;-68
2021/08/08 09:00:42;;;;;;;11.35;2.63;;;;;;;20.32;77.49;100150.56;5071484;28;20051;-69
2021/08/08 09:03:26;;;;;;;9.93;2.63;;;;;;;20.42;76.07;100153.69;5072343;28;20513;-69
2021/08/08 09:06:10;;;;;;;7.00;2.75;;;;;;;20.27;73.88;100153.03;5057189;28;20051;-69
2021/08/08 09:08:54;;;;;;;6.95;2.75;;;;;;;20.39;75.74;100157.63;5071763;28;20118;-69
2021/08/08 09:11:40;;;;;;;8.63;2.33;;;;;;;20.17;74.62;100152.63;5071038;28;20523;-69
2021/08/08 09:14:23;;;;;;;8.65;2.67;;;;;;;20.19;75.01;100153.28;5085778;28;20051;-69
2021/08/08 09:17:08;;;;;;;6.10;2.70;;;;;;;20.23;72.46;100154.50;5057251;28;20051;-69
2021/08/08 09:20:05;;;;;;;8.05;2.40;;;;;;;20.11;71.74;100156.19;5057054;28;20441;-69
2021/08/08 09:22:56;;;;;;;3.22;2.00;;;;;;;20.50;72.85;100164.31;5057208;28;20093;-69
2021/08/08 09:25:48;;;;;;;5.97;2.75;;;;;;;20.54;70.33;100165.53;5072051;28;20070;-69
2021/08/08 09:28:32;;;;;;;8.30;2.92;;;;;;;20.65;71.03;100164.88;5072079;28;20094;-69
2021/08/08 09:31:20;;;;;;;7.93;3.15;;;;;;;20.94;71.88;100156.31;5071068;28;20091;-69
2021/08/08 09:34:04;;;;;;;8.40;2.60;;;;;;;21.14;67.42;100163.31;5071089;28;20052;-68
2021/08/08 09:36:49;;;;;;;5.28;2.38;;;;;;;21.22;67.79;100156.84;5071228;28;20047;-69
2021/08/08 09:39:41;;;;;;;6.18;1.90;;;;;;;21.29;64.90;100167.41;5071018;28;20132;-69
2021/08/08 09:42:27;;;;;;;7.45;2.17;;;;;;;21.28;64.41;100154.09;5070953;28;20525;-69
2021/08/08 09:45:13;;;;;;;7.55;2.30;;;;;;;21.67;66.14;100159.34;5071200;28;20185;-69
2021/08/08 09:47:58;;;;;;;5.30;2.28;;;;;;;22.15;62.12;100147.72;5072554;28;20097;-68
2021/08/08 09:50:43;;;;;;;9.45;2.22;;;;;;;22.09;59.70;100158.63;5076027;28;20055;-69
2021/08/08 09:53:26;;;;;;;4.82;2.55;;;;;;;22.01;61.88;100154.28;5074966;28;20127;-69
2021/08/08 09:56:17;;;;;;;5.68;2.30;;;;;;;22.12;59.96;100163.63;5074638;28;20070;-69
2021/08/08 09:59:05;;;;;;;8.20;2.92;;;;;;;22.05;59.02;100170.97;5074672;28;20055;-68
2021/08/08 10:01:49;;;;;;;7.88;2.10;;;;;;;22.29;60.18;100160.13;5074752;28;20117;-69
2021/08/08 10:04:34;;;;;;;9.20;2.40;;;;;;;22.81;55.21;100165.09;5074765;28;20051;-70
2021/08/08 10:07:18;;;;;;;6.82;2.42;;;;;;;22.74;56.79;100158.06;5074594;28;20049;-68
2021/08/08 10:10:02;;;;;;;4.85;2.30;;;;;;;22.27;58.57;100166.81;5088643;28;20563;-69
2021/08/08 10:13:29;;;;;;;9.95;2.78;;;;;;;21.90;57.81;100176.72;5074928;28;20054;-69
2021/08/08 10:16:14;;;;;;;5.45;2.30;;;;;;;21.88;58.63;100181.53;5066881;28;20113;-69
2021/08/08 10:19:01;;;;;;;6.13;2.28;;;;;;;22.42;56.76;100165.47;5074287;28;20083;-69
2021/08/08 10:21:46;;;;;;;4.85;2.55;;;;;;;22.53;55.87;100172.88;5074228;28;20051;-69
2021/08/08 10:24:30;;;;;;;6.50;2.47;;;;;;;22.24;57.12;100168.13;5060193;28;20051;-69
2021/08/08 10:27:21;;;;;;;5.57;2.15;;;;;;;22.47;57.58;100167.50;5074309;28;20047;-69
2021/08/08 10:30:06;;;;;;;4.78;2.00;;;;;;;22.84;55.40;100175.50;5074308;28;20043;-69
2021/08/08 10:32:50;;;;;;;7.25;2.38;;;;;;;22.33;55.89;100183.09;5075196;28;20047;-68
2021/08/08 10:35:45;;;;;;;5.70;2.40;;;;;;;23.66;54.78;100181.22;5059808;28;20043;-69
2021/08/08 10:38:35;;;;;;;9.20;2.53;;;;;;;24.29;53.92;100168.78;5074132;28;20051;-68
2021/08/08 10:41:19;;;;;;;5.57;2.47;;;;;;;25.29;47.14;100162.94;5073858;28;20098;-69
2021/08/08 10:44:08;;;;;;;5.43;2.50;;;;;;;25.49;47.76;100163.34;5059884;28;20520;-69
2021/08/08 10:46:53;;;;;;;4.68;2.40;;;;;;;25.26;48.01;100168.88;5073951;28;20570;-69
2021/08/08 10:49:37;;;;;;;4.05;1.80;;;;;;;24.66;47.86;100167.50;5073779;28;20094;-69
2021/08/08 10:52:21;;;;;;;;;;;;;;;22.71;52.29;100175.63;5075610;28;20122;-68
2021/08/08 10:55:06;;;;;;;7.53;2.40;;;;;;;22.45;54.29;100175.06;5059645;28;19942;-68
2021/08/08 10:57:50;;;;;;;4.97;2.45;;;;;;;22.40;55.82;100166.75;5074014;28;20127;-68
2021/08/08 11:00:34;;;;;;;5.70;2.60;;;;;;;22.21;56.35;100168.53;5073457;28;20412;-68
2021/08/08 11:03:18;;;;;;;7.07;2.58;;;;;;;22.36;56.55;100170.94;5074339;28;20119;-68
2021/08/08 11:06:02;;;;;;;;;;;;;;;22.56;55.58;100172.47;5075237;28;20109;-68
2021/08/08 11:08:53;;;;;;;5.40;2.20;;;;;;;22.51;52.82;100177.72;5074002;28;20324;-69
2021/08/08 11:11:38;;;;;;;8.13;2.80;;;;;;;22.66;54.39;100180.94;5073429;28;20388;-69
2021/08/08 11:14:23;;;;;;;5.93;2.65;;;;;;;23.28;51.96;100177.13;5073640;28;20090;-69
2021/08/08 11:17:07;;;;;;;13.55;2.60;;;;;;;23.34;50.18;100195.28;5073540;28;20102;-68
2021/08/08 11:19:51;;;;;;;5.25;2.20;;;;;;;22.73;53.29;100183.56;5073671;28;20573;-68
2021/08/08 11:22:35;;;;;;;5.90;2.00;;;;;;;22.63;52.09;100189.50;5088692;28;20050;-68
2021/08/08 11:25:20;;;;;;;3.70;2.10;;;;;;;22.65;52.93;100179.28;5073581;28;20125;-68
2021/08/08 11:28:05;;;;;;;4.38;2.10;;;;;;;22.92;50.56;100186.09;5073342;28;20051;-69
2021/08/08 11:30:49;;;;;;;5.55;2.45;;;;;;;22.99;51.94;100189.56;5058966;28;20059;-68
2021/08/08 11:33:32;;;;;;;6.93;2.55;;;;;;;22.68;51.61;100197.00;5073311;28;20087;-69
2021/08/08 11:36:25;;;;;;;4.18;2.20;;;;;;;23.32;51.17;100200.94;5072938;28;20113;-69
2021/08/08 11:39:11;;;;;;;4.75;2.38;;;;;;;24.85;47.73;100194.44;5072834;28;20070;-68
2021/08/08 11:42:13;;;;;;;6.63;2.13;;;;;;;25.89;49.96;100199.66;5058941;28;20101;-68
2021/08/08 11:44:58;;;;;;;2.78;1.70;;;;;;;26.12;50.69;100199.56;5072727;28;20058;-69
2021/08/08 11:47:42;;;;;;;8.45;2.50;;;;;;;26.94;47.61;100212.44;5072693;28;20052;-66
2021/08/08 11:50:29;;;;;;;;;;;;;;;25.75;50.86;100206.47;5073144;28;20055;-69
2021/08/08 11:53:12;;;;;;;4.88;1.60;;;;;;;24.84;53.07;100187.31;5073908;28;19939;-69
2021/08/08 11:55:56;;;;;;;;;;;;;;;23.94;55.04;100197.81;5072965;28;20055;-68
2021/08/08 11:58:45;;;;;;;5.05;1.90;;;;;;;23.31;58.35;100193.00;5073836;28;19958;-68
2021/08/08 12:01:29;;;;;;;4.15;1.65;;;;;;;23.03;61.09;100207.09;5072693;28;20055;-68
2021/08/08 12:04:13;;;;;;;6.53;2.13;;;;;;;22.47;60.66;100200.97;5074261;28;20055;-68
2021/08/08 12:06:56;;;;;;;5.45;1.63;;;;;;;22.28;62.41;100214.66;5072590;28;20051;-68
2021/08/08 12:09:46;;;;;;;4.90;1.83;;;;;;;22.35;58.07;100196.44;5072366;28;20059;-68
2021/08/08 12:12:35;;;;;;;5.25;1.83;;;;;;;22.40;57.67;100207.50;5071963;28;20571;-68
2021/08/08 12:15:30;;;;;;;2.97;1.67;;;;;;;21.92;57.76;100195.50;5072180;28;20090;-69
2021/08/08 12:18:15;;;;;;;4.68;1.40;;;;;;;21.95;59.97;100205.91;5058070;28;20112;-69
2021/08/08 12:20:59;;;;;;;3.33;1.83;;;;;;;23.29;56.13;100204.09;5072153;28;20132;-69
2021/08/08 12:23:43;;;;;;;5.78;1.80;;;;;;;24.83;51.86;100195.72;5072103;28;20568;-69
2021/08/08 12:26:27;;;;;;;6.20;1.50;;;;;;;26.24;46.81;100189.41;5058220;28;20404;-69
2021/08/08 12:29:11;;;;;;;2.70;1.65;;;;;;;27.36;44.02;100196.09;5071932;28;20094;-69
2021/08/08 12:32:06;;;;;;;3.63;2.03;;;;;;;28.58;41.86;100189.75;5072838;28;20105;-69
2021/08/08 12:34:50;;;;;;;4.32;2.08;;;;;;;29.28;39.82;100179.22;5072874;28;20055;-69
2021/08/08 12:37:35;;;;;;;4.38;2.10;;;;;;;29.20;40.31;100185.25;5072003;28;20174;-69
2021/08/08 12:40:21;;;;;;;3.33;1.77;;;;;;;28.36;42.30;100185.44;5071776;28;20107;-69
2021/08/08 12:43:06;;;;;;;5.57;2.00;;;;;;;27.79;43.24;100190.63;5072008;28;20097;-69
2021/08/08 12:45:51;;;;;;;2.70;1.67;;;;;;;28.70;40.62;100178.56;5071915;28;20131;-68